createdAt,value
2018-07-27T00:01:56.886Z,25.63
2018-07-27T00:04:25.176Z,25.52
2018-07-27T00:06:53.481Z,25.46
2018-07-27T00:09:21.764Z,25.51
2018-07-27T00:11:50.041Z,25.38
2018-07-27T00:14:18.339Z,25.35
2018-07-27T00:16:46.619Z,25.29
2018-07-27T00:19:14.951Z,25.32
2018-07-27T00:21:43.243Z,25.29
2018-07-27T00:24:11.534Z,25.59
2018-07-27T00:26:39.834Z,25.50
2018-07-27T00:29:08.118Z,25.47
2018-07-27T00:31:36.460Z,25.41
2018-07-27T00:34:05.858Z,25.42
2018-07-27T00:36:34.138Z,25.36
2018-07-27T00:39:02.573Z,25.23
2018-07-27T00:41:30.857Z,25.19
2018-07-27T00:43:59.208Z,25.13
2018-07-27T00:46:27.502Z,25.24
2018-07-27T00:48:55.811Z,25.14
2018-07-27T00:51:24.091Z,25.08
2018-07-27T00:53:52.365Z,25.06
2018-07-27T00:56:20.687Z,25.08
2018-07-27T00:58:48.993Z,25.01
2018-07-27T01:01:17.291Z,24.88
2018-07-27T01:03:45.608Z,24.98
2018-07-27T01:06:13.891Z,24.87
2018-07-27T01:08:42.424Z,24.88
2018-07-27T01:11:11.560Z,24.82
2018-07-27T01:13:39.854Z,24.82
2018-07-27T01:16:08.307Z,24.86
2018-07-27T01:18:36.623Z,24.70
2018-07-27T01:21:04.953Z,24.56
2018-07-27T01:23:33.297Z,24.40
2018-07-27T01:26:01.736Z,24.31
2018-07-27T01:28:30.039Z,24.16
2018-07-27T01:30:59.033Z,24.10
2018-07-27T01:33:27.326Z,24.09
2018-07-27T01:35:55.809Z,23.93
2018-07-27T01:38:24.098Z,23.91
2018-07-27T01:40:52.431Z,23.86
2018-07-27T01:43:20.743Z,23.78
2018-07-27T01:45:49.059Z,23.68
2018-07-27T01:48:17.367Z,23.56
2018-07-27T01:50:45.676Z,23.70
2018-07-27T01:53:13.987Z,23.53
2018-07-27T01:55:42.270Z,23.49
2018-07-27T01:58:10.581Z,23.47
2018-07-27T02:00:40.088Z,23.40
2018-07-27T02:03:08.544Z,23.32
2018-07-27T02:05:36.899Z,23.20
2018-07-27T02:08:05.223Z,23.35
2018-07-27T02:10:33.529Z,23.53
2018-07-27T02:13:01.885Z,23.51
2018-07-27T02:15:30.320Z,23.48
2018-07-27T02:17:58.671Z,23.71
2018-07-27T02:20:26.967Z,23.63
2018-07-27T02:22:55.295Z,23.76
2018-07-27T02:25:23.567Z,23.79
2018-07-27T02:27:51.935Z,23.66
2018-07-27T02:30:20.275Z,23.60
2018-07-27T02:32:48.566Z,23.42
2018-07-27T02:35:16.881Z,23.27
2018-07-27T02:37:45.249Z,23.29
2018-07-27T02:40:13.576Z,23.20
2018-07-27T02:42:41.888Z,23.12
2018-07-27T02:45:10.207Z,23.11
2018-07-27T02:47:38.715Z,23.07
2018-07-27T02:50:07.165Z,23.01
2018-07-27T02:52:35.487Z,23.10
2018-07-27T02:55:03.817Z,22.95
2018-07-27T02:57:32.111Z,22.86
2018-07-27T03:00:00.586Z,22.74
2018-07-27T03:02:29.520Z,22.70
2018-07-27T03:04:57.836Z,22.56
2018-07-27T03:07:26.135Z,22.48
2018-07-27T03:09:54.582Z,22.44
2018-07-27T03:12:22.993Z,22.38
2018-07-27T03:14:51.279Z,22.41
2018-07-27T03:17:19.597Z,22.32
2018-07-27T03:19:47.903Z,22.39
2018-07-27T03:22:16.270Z,22.34
2018-07-27T03:24:44.576Z,22.40
2018-07-27T03:27:15.751Z,22.45
2018-07-27T03:29:44.079Z,22.38
2018-07-27T03:32:12.318Z,22.25
2018-07-27T03:34:40.714Z,22.18
2018-07-27T03:37:09.033Z,22.21
2018-07-27T03:39:37.355Z,22.12
2018-07-27T03:42:05.796Z,22.03
2018-07-27T03:44:34.082Z,22.00
2018-07-27T03:47:02.587Z,22.00
2018-07-27T03:49:30.859Z,22.12
2018-07-27T03:51:59.169Z,22.28
2018-07-27T03:54:27.539Z,22.32
2018-07-27T03:56:55.951Z,22.42
2018-07-27T03:59:24.306Z,22.38
2018-07-27T04:01:52.670Z,22.47
2018-07-27T04:04:21.034Z,22.47
2018-07-27T04:06:49.362Z,22.56
2018-07-27T04:09:17.646Z,22.64
2018-07-27T04:11:45.989Z,22.76
2018-07-27T04:14:14.279Z,22.78
2018-07-27T04:16:43.072Z,22.77
2018-07-27T04:19:11.492Z,22.88
2018-07-27T04:21:39.764Z,22.81
2018-07-27T04:24:08.116Z,22.79
2018-07-27T04:26:36.471Z,22.82
2018-07-27T04:29:04.787Z,22.87
2018-07-27T04:31:33.108Z,22.88
2018-07-27T04:34:01.387Z,23.02
2018-07-27T04:36:29.795Z,23.04
2018-07-27T04:38:58.077Z,23.04
2018-07-27T04:41:26.428Z,23.16
2018-07-27T04:43:54.910Z,23.09
2018-07-27T04:46:23.311Z,23.12
2018-07-27T04:48:51.703Z,23.25
2018-07-27T04:51:20.021Z,23.21
2018-07-27T04:53:49.119Z,23.35
2018-07-27T04:56:17.526Z,23.32
2018-07-27T04:58:45.751Z,23.43
2018-07-27T05:01:14.070Z,23.31
2018-07-27T05:03:42.460Z,23.37
2018-07-27T05:06:10.853Z,23.44
2018-07-27T05:08:44.690Z,23.61
2018-07-27T05:11:12.971Z,23.63
2018-07-27T05:13:41.295Z,23.71
2018-07-27T05:16:09.585Z,23.89
2018-07-27T05:18:37.836Z,23.90
2018-07-27T05:21:06.601Z,24.05
2018-07-27T05:23:34.936Z,24.06
2018-07-27T05:26:03.384Z,24.08
2018-07-27T05:28:31.815Z,24.19
2018-07-27T05:31:00.107Z,24.27
2018-07-27T05:33:28.652Z,24.35
2018-07-27T05:35:57.053Z,24.61
2018-07-27T05:38:25.336Z,24.58
2018-07-27T05:40:53.658Z,24.57
2018-07-27T05:43:22.035Z,24.60
2018-07-27T05:45:50.413Z,24.69
2018-07-27T05:48:18.779Z,24.74
2018-07-27T05:50:47.103Z,24.86
2018-07-27T05:53:15.468Z,24.92
2018-07-27T05:55:43.784Z,24.99
2018-07-27T05:58:12.325Z,25.08
2018-07-27T06:00:40.759Z,25.17
2018-07-27T06:03:09.047Z,25.29
2018-07-27T06:05:37.408Z,25.41
2018-07-27T06:08:05.906Z,25.45
2018-07-27T06:10:34.237Z,25.53
2018-07-27T06:13:02.554Z,25.60
2018-07-27T06:15:30.941Z,25.78
2018-07-27T06:17:59.341Z,25.76
2018-07-27T06:20:27.638Z,25.89
2018-07-27T06:22:55.998Z,25.97
2018-07-27T06:25:24.340Z,26.04
2018-07-27T06:27:52.740Z,26.12
2018-07-27T06:30:22.199Z,26.22
2018-07-27T06:32:50.492Z,26.32
2018-07-27T06:35:18.807Z,26.40
2018-07-27T06:37:47.117Z,26.52
2018-07-27T06:40:15.478Z,26.60
2018-07-27T06:42:43.793Z,26.68
2018-07-27T06:45:12.119Z,26.83
2018-07-27T06:47:40.490Z,26.93
2018-07-27T06:50:08.755Z,27.08
2018-07-27T06:52:37.577Z,27.21
2018-07-27T06:55:05.919Z,27.23
2018-07-27T06:57:34.243Z,27.42
2018-07-27T07:00:02.753Z,27.48
2018-07-27T07:02:31.082Z,27.62
2018-07-27T07:04:59.345Z,27.73
2018-07-27T07:07:27.756Z,27.86
2018-07-27T07:09:56.037Z,27.95
2018-07-27T07:12:24.347Z,28.13
2018-07-27T07:14:52.667Z,28.27
2018-07-27T07:17:21.013Z,28.43
2018-07-27T07:19:49.365Z,28.51
2018-07-27T07:22:17.982Z,28.57
2018-07-27T07:24:46.281Z,28.69
2018-07-27T07:27:14.575Z,28.91
2018-07-27T07:29:42.998Z,28.98
2018-07-27T07:32:11.381Z,29.06
2018-07-27T07:34:39.704Z,29.24
2018-07-27T07:37:08.030Z,29.33
2018-07-27T07:39:36.507Z,29.52
2018-07-27T07:42:05.003Z,29.47
2018-07-27T07:44:33.277Z,29.54
2018-07-27T07:47:01.771Z,29.65
2018-07-27T07:49:30.459Z,29.72
2018-07-27T07:51:58.821Z,29.83
2018-07-27T07:54:27.236Z,29.90
2018-07-27T07:56:55.851Z,29.88
2018-07-27T07:59:24.138Z,30.08
2018-07-27T08:01:52.415Z,30.04
2018-07-27T08:04:20.711Z,30.17
2018-07-27T08:06:49.016Z,30.45
2018-07-27T08:09:17.344Z,30.59
2018-07-27T08:11:45.686Z,30.48
2018-07-27T08:14:14.029Z,30.56
2018-07-27T08:16:42.414Z,30.64
2018-07-27T08:19:10.733Z,30.64
2018-07-27T08:21:39.060Z,30.71
2018-07-27T08:24:07.475Z,30.82
2018-07-27T08:26:38.872Z,31.17
2018-07-27T08:29:08.446Z,31.07
2018-07-27T08:31:36.754Z,31.10
2018-07-27T08:34:05.652Z,31.08
2018-07-27T08:36:34.779Z,31.24
2018-07-27T08:39:05.593Z,31.34
2018-07-27T08:41:34.326Z,31.41
2018-07-27T08:44:02.649Z,31.52
2018-07-27T08:46:30.960Z,31.44
2018-07-27T08:48:59.296Z,31.56
2018-07-27T08:51:27.601Z,31.88
2018-07-27T08:53:56.529Z,31.92
2018-07-27T08:56:25.036Z,31.67
2018-07-27T08:58:54.098Z,31.59
2018-07-27T09:01:22.449Z,31.63
2018-07-27T09:03:50.776Z,31.94
2018-07-27T09:06:19.325Z,32.01
2018-07-27T09:08:48.107Z,32.17
2018-07-27T09:11:16.454Z,32.27
2018-07-27T09:13:44.809Z,32.20
2018-07-27T09:16:13.124Z,32.34
2018-07-27T09:18:41.743Z,32.43
2018-07-27T09:21:10.267Z,32.66
2018-07-27T09:23:38.611Z,32.70
2018-07-27T09:26:07.036Z,32.68
2018-07-27T09:28:35.417Z,32.61
2018-07-27T09:31:03.761Z,32.73
2018-07-27T09:33:32.083Z,32.79
2018-07-27T09:36:00.398Z,32.90
2018-07-27T09:38:29.017Z,32.93
2018-07-27T09:40:57.287Z,33.11
2018-07-27T09:43:25.551Z,33.16
2018-07-27T09:45:54.167Z,33.16
2018-07-27T09:48:22.473Z,33.23
2018-07-27T09:50:58.485Z,33.40
2018-07-27T09:53:27.220Z,33.57
2018-07-27T09:56:00.618Z,33.50
2018-07-27T09:58:29.269Z,33.48
2018-07-27T10:01:02.919Z,33.56
2018-07-27T10:03:31.226Z,33.47
2018-07-27T10:06:00.107Z,33.39
2018-07-27T10:08:28.420Z,33.59
2018-07-27T10:10:56.707Z,33.57
2018-07-27T10:13:25.022Z,33.37
2018-07-27T10:15:53.427Z,33.30
2018-07-27T10:18:21.768Z,33.67
2018-07-27T10:20:50.121Z,33.83
2018-07-27T10:23:18.520Z,33.75
2018-07-27T10:25:47.014Z,34.04
2018-07-27T10:28:15.393Z,33.72
2018-07-27T10:30:43.819Z,33.93
2018-07-27T10:33:12.142Z,34.27
2018-07-27T10:35:40.521Z,34.36
2018-07-27T10:38:08.881Z,34.00
2018-07-27T10:40:37.195Z,34.35
2018-07-27T10:43:05.552Z,34.36
2018-07-27T10:45:33.931Z,33.93
2018-07-27T10:48:02.367Z,34.23
2018-07-27T10:50:35.379Z,34.50
2018-07-27T10:53:04.095Z,34.24
2018-07-27T10:55:32.702Z,34.24
2018-07-27T10:58:01.000Z,34.17
2018-07-27T11:00:29.331Z,34.55
2018-07-27T11:02:57.628Z,34.48
2018-07-27T11:05:25.965Z,34.58
2018-07-27T11:07:54.443Z,34.93
2018-07-27T11:10:24.036Z,34.81
2018-07-27T11:12:52.355Z,34.82
2018-07-27T11:15:20.738Z,35.01
2018-07-27T11:17:49.074Z,34.86
2018-07-27T11:20:17.388Z,34.60
2018-07-27T11:22:45.707Z,34.87
2018-07-27T11:25:14.334Z,34.77
2018-07-27T11:27:42.667Z,34.90
2018-07-27T11:30:11.032Z,35.19
2018-07-27T11:32:39.358Z,35.34
2018-07-27T11:35:07.694Z,35.10
2018-07-27T11:37:36.066Z,35.13
2018-07-27T11:40:05.626Z,35.05
2018-07-27T11:42:34.026Z,35.33
2018-07-27T11:45:02.279Z,35.57
2018-07-27T11:47:30.552Z,35.49
2018-07-27T11:49:58.892Z,35.55
2018-07-27T11:52:27.272Z,35.54
2018-07-27T11:54:55.674Z,35.74
2018-07-27T11:57:24.007Z,35.96
2018-07-27T11:59:52.431Z,35.89
2018-07-27T12:02:20.761Z,35.92
2018-07-27T12:04:49.086Z,35.81
2018-07-27T12:07:17.446Z,36.05
2018-07-27T12:09:45.854Z,36.19
2018-07-27T12:12:14.191Z,36.30
2018-07-27T12:14:42.704Z,36.19
2018-07-27T12:17:10.907Z,36.34
2018-07-27T12:19:39.252Z,36.34
2018-07-27T12:22:07.636Z,36.31
2018-07-27T12:24:36.001Z,36.91
2018-07-27T12:27:04.356Z,36.91
2018-07-27T12:29:32.674Z,36.39
2018-07-27T12:32:01.008Z,36.33
2018-07-27T12:34:29.353Z,36.54
2018-07-27T12:36:59.807Z,36.77
2018-07-27T12:39:29.724Z,37.25
2018-07-27T12:41:58.073Z,37.58
2018-07-27T12:44:26.879Z,37.85
2018-07-27T12:46:55.192Z,38.54
2018-07-27T12:49:23.594Z,38.45
2018-07-27T12:51:52.014Z,37.82
2018-07-27T12:54:20.494Z,38.06
2018-07-27T12:56:49.190Z,38.35
2018-07-27T12:59:17.464Z,38.79
2018-07-27T13:01:45.762Z,38.57
2018-07-27T13:04:14.175Z,39.73
2018-07-27T13:06:42.483Z,40.09
2018-07-27T13:09:12.119Z,39.13
2018-07-27T13:11:40.609Z,39.19
2018-07-27T13:14:09.158Z,38.49
2018-07-27T13:16:37.514Z,38.87
2018-07-27T13:19:05.976Z,39.44
2018-07-27T13:21:34.341Z,39.51
2018-07-27T13:24:03.186Z,40.75
2018-07-27T13:26:32.511Z,39.99
2018-07-27T13:29:00.842Z,40.52
2018-07-27T13:31:54.902Z,41.06
2018-07-27T13:34:30.810Z,40.40
2018-07-27T13:36:59.404Z,40.10
2018-07-27T13:39:28.105Z,41.49
2018-07-27T13:41:56.859Z,41.67
2018-07-27T13:44:25.126Z,40.20
2018-07-27T13:46:53.429Z,40.42
2018-07-27T13:49:21.759Z,42.42
2018-07-27T13:51:50.125Z,42.70
2018-07-27T13:54:18.431Z,40.47
2018-07-27T13:56:47.768Z,42.84
2018-07-27T13:59:17.001Z,40.50
2018-07-27T14:01:45.831Z,39.37
2018-07-27T14:04:14.388Z,40.06
2018-07-27T14:06:42.925Z,40.25
2018-07-27T14:09:12.370Z,42.56
2018-07-27T14:11:41.503Z,41.21
2018-07-27T14:14:10.142Z,42.33
2018-07-27T14:16:38.699Z,42.55
2018-07-27T14:19:07.091Z,42.40
2018-07-27T14:21:35.494Z,41.30
2018-07-27T14:24:03.754Z,41.13
2018-07-27T14:26:32.122Z,41.86
2018-07-27T14:29:00.428Z,41.46
2018-07-27T14:31:28.717Z,42.08
2018-07-27T14:33:57.075Z,42.74
2018-07-27T14:36:25.801Z,42.50
2018-07-27T14:38:54.295Z,41.58
2018-07-27T14:41:23.003Z,41.42
2018-07-27T14:43:51.898Z,41.30
2018-07-27T14:46:24.278Z,42.01
2018-07-27T14:49:01.196Z,42.50
2018-07-27T14:51:30.013Z,41.79
2018-07-27T14:53:58.308Z,43.43
2018-07-27T14:56:26.580Z,43.84
2018-07-27T14:58:55.104Z,44.00
2018-07-27T15:01:23.384Z,42.89
2018-07-27T15:03:51.704Z,44.32
2018-07-27T15:06:20.003Z,43.34
2018-07-27T15:08:48.510Z,41.94
2018-07-27T15:11:16.934Z,43.00
2018-07-27T15:13:45.325Z,44.22
2018-07-27T15:16:13.650Z,44.35
2018-07-27T15:18:41.924Z,42.11
2018-07-27T15:21:10.305Z,42.90
2018-07-27T15:23:38.861Z,43.14
2018-07-27T15:26:07.171Z,43.78
2018-07-27T15:28:35.757Z,45.44
2018-07-27T15:31:04.134Z,46.54
2018-07-27T15:33:32.802Z,45.05
2018-07-27T15:36:01.125Z,43.86
2018-07-27T15:38:29.417Z,43.15
2018-07-27T15:40:57.871Z,42.33
2018-07-27T15:43:26.160Z,42.29
2018-07-27T15:45:55.313Z,43.35
2018-07-27T15:48:23.675Z,42.98
2018-07-27T15:50:51.938Z,44.75
2018-07-27T15:53:20.661Z,45.84
2018-07-27T15:55:48.958Z,45.23
2018-07-27T15:58:17.290Z,44.75
2018-07-27T16:00:45.628Z,46.18
2018-07-27T16:03:13.917Z,47.60
2018-07-27T16:05:43.691Z,47.23
2018-07-27T16:08:12.010Z,44.28
2018-07-27T16:10:40.937Z,44.58
2018-07-27T16:13:09.280Z,43.08
2018-07-27T16:15:37.833Z,43.02
2018-07-27T16:18:06.141Z,42.82
2018-07-27T16:20:34.628Z,42.22
2018-07-27T16:23:02.951Z,42.48
2018-07-27T16:25:31.266Z,42.93
2018-07-27T16:27:59.582Z,43.15
2018-07-27T16:30:27.898Z,42.53
2018-07-27T16:32:56.246Z,43.00
2018-07-27T16:35:26.041Z,42.21
2018-07-27T16:37:54.359Z,44.27
2018-07-27T16:40:22.986Z,43.50
2018-07-27T16:42:51.351Z,42.99
2018-07-27T16:45:19.643Z,41.65
2018-07-27T16:47:47.988Z,41.09
2018-07-27T16:50:16.322Z,42.64
2018-07-27T16:52:44.689Z,43.45
2018-07-27T16:55:13.027Z,43.35
2018-07-27T16:57:41.306Z,42.54
2018-07-27T17:00:09.623Z,42.63
2018-07-27T17:02:37.949Z,44.41
2018-07-27T17:05:06.613Z,44.99
2018-07-27T17:07:35.300Z,42.92
2018-07-27T17:10:03.885Z,42.56
2018-07-27T17:12:32.164Z,42.99
2018-07-27T17:15:01.542Z,43.24
2018-07-27T17:17:29.828Z,43.30
2018-07-27T17:19:58.153Z,44.37
2018-07-27T17:22:26.669Z,44.12
2018-07-27T17:24:55.135Z,42.68
2018-07-27T17:27:23.450Z,43.80
2018-07-27T17:29:52.166Z,40.93
2018-07-27T17:32:20.526Z,40.48
2018-07-27T17:34:48.988Z,41.16
2018-07-27T17:37:17.259Z,41.37
2018-07-27T17:39:45.527Z,41.30
2018-07-27T17:42:13.857Z,41.39
2018-07-27T17:44:42.225Z,41.07
2018-07-27T17:47:10.629Z,41.91
2018-07-27T17:49:38.928Z,41.72
2018-07-27T17:52:07.575Z,41.43
2018-07-27T17:54:36.141Z,40.59
2018-07-27T17:57:04.522Z,40.78
2018-07-27T17:59:32.841Z,40.55
2018-07-27T18:02:01.180Z,40.52
2018-07-27T18:04:29.594Z,39.56
2018-07-27T18:06:58.825Z,39.77
2018-07-27T18:09:27.801Z,40.47
2018-07-27T18:11:56.102Z,39.50
2018-07-27T18:14:24.467Z,40.00
2018-07-27T18:16:52.782Z,38.77
2018-07-27T18:19:21.164Z,38.38
2018-07-27T18:21:49.531Z,37.65
2018-07-27T18:24:17.818Z,36.76
2018-07-27T18:26:46.167Z,36.15
2018-07-27T18:29:14.498Z,35.94
2018-07-27T18:31:43.030Z,35.24
2018-07-27T18:34:11.441Z,35.44
2018-07-27T18:36:39.958Z,35.26
2018-07-27T18:39:10.296Z,35.18
2018-07-27T18:41:39.234Z,35.27
2018-07-27T18:44:07.989Z,35.30
2018-07-27T18:46:37.154Z,35.13
2018-07-27T18:49:05.531Z,35.14
2018-07-27T18:51:33.823Z,35.24
2018-07-27T18:54:02.140Z,35.08
2018-07-27T18:56:30.469Z,34.82
2018-07-27T18:58:58.815Z,34.40
2018-07-27T19:01:27.183Z,34.14
2018-07-27T19:03:55.555Z,34.05
2018-07-27T19:06:24.428Z,33.89
2018-07-27T19:08:52.698Z,33.52
2018-07-27T19:11:20.989Z,33.26
2018-07-27T19:13:49.609Z,33.00
2018-07-27T19:16:17.926Z,32.83
2018-07-27T19:18:46.223Z,32.63
2018-07-27T19:21:14.554Z,32.50
2018-07-27T19:23:42.842Z,32.34
2018-07-27T19:26:11.167Z,32.01
2018-07-27T19:28:40.014Z,31.73
2018-07-27T19:31:08.645Z,31.51
2018-07-27T19:33:37.305Z,31.44
2018-07-27T19:36:05.739Z,31.44
2018-07-27T19:38:34.034Z,31.24
2018-07-27T19:41:02.369Z,31.12
2018-07-27T19:43:30.644Z,31.03
2018-07-27T19:45:59.954Z,30.92
2018-07-27T19:48:28.310Z,30.98
2018-07-27T19:50:57.259Z,30.87
2018-07-27T19:53:26.250Z,30.75
2018-07-27T19:55:54.616Z,30.74
2018-07-27T19:58:22.987Z,30.54
2018-07-27T20:00:51.352Z,30.48
2018-07-27T20:03:19.693Z,30.42
2018-07-27T20:05:47.997Z,30.40
2018-07-27T20:08:16.422Z,30.38
2018-07-27T20:10:44.831Z,30.30
2018-07-27T20:13:13.179Z,30.24
2018-07-27T20:15:41.485Z,30.19
2018-07-27T20:18:09.813Z,30.23
2018-07-27T20:20:38.287Z,30.07
2018-07-27T20:23:06.585Z,30.00
2018-07-27T20:25:35.011Z,30.02
2018-07-27T20:28:03.343Z,29.86
2018-07-27T20:30:31.739Z,29.78
2018-07-27T20:33:00.050Z,29.82
2018-07-27T20:35:28.323Z,29.66
2018-07-27T20:37:56.647Z,29.67
2018-07-27T20:40:26.013Z,29.61
2018-07-27T20:42:54.303Z,29.58
2018-07-27T20:45:22.975Z,29.42
2018-07-27T20:47:51.260Z,29.34
2018-07-27T20:50:19.560Z,29.43
2018-07-27T20:52:47.977Z,29.40
2018-07-27T20:55:16.382Z,29.35
2018-07-27T20:57:44.775Z,29.12
2018-07-27T21:00:14.285Z,29.15
2018-07-27T21:02:44.275Z,29.08
2018-07-27T21:05:13.359Z,29.04
2018-07-27T21:07:42.301Z,28.91
2018-07-27T21:10:11.328Z,28.82
2018-07-27T21:12:40.296Z,28.76
2018-07-27T21:15:08.862Z,28.72
2018-07-27T21:17:38.275Z,28.64
2018-07-27T21:20:07.043Z,28.52
2018-07-27T21:22:35.451Z,28.46
2018-07-27T21:25:03.842Z,28.41
2018-07-27T21:27:32.215Z,28.26
2018-07-27T21:30:00.515Z,28.22
2018-07-27T21:32:28.925Z,28.17
2018-07-27T21:34:57.250Z,28.01
2018-07-27T21:37:25.542Z,27.93
2018-07-27T21:39:53.848Z,28.17
2018-07-27T21:42:23.251Z,27.97
2018-07-27T21:44:51.573Z,27.93
2018-07-27T21:47:20.114Z,27.96
2018-07-27T21:49:48.433Z,27.88
2018-07-27T21:52:16.760Z,27.89
2018-07-27T21:54:45.143Z,27.88
2018-07-27T21:57:13.448Z,27.83
2018-07-27T21:59:41.831Z,27.96
2018-07-27T22:02:10.427Z,27.78
2018-07-27T22:04:38.715Z,27.85
2018-07-27T22:07:07.002Z,27.90
2018-07-27T22:09:36.357Z,27.87
2018-07-27T22:12:04.760Z,27.73
2018-07-27T22:14:33.082Z,27.78
2018-07-27T22:17:01.358Z,27.81
2018-07-27T22:19:29.631Z,27.65
2018-07-27T22:21:57.913Z,27.74
2018-07-27T22:24:26.214Z,27.52
2018-07-27T22:26:54.535Z,27.59
2018-07-27T22:29:22.808Z,27.61
2018-07-27T22:31:51.106Z,27.56
2018-07-27T22:34:19.498Z,27.50
2018-07-27T22:36:47.875Z,27.48
2018-07-27T22:39:16.195Z,27.39
2018-07-27T22:41:44.516Z,27.45
2018-07-27T22:44:12.858Z,27.46
2018-07-27T22:46:41.256Z,27.48
2018-07-27T22:49:09.633Z,27.38
2018-07-27T22:51:38.028Z,27.42
2018-07-27T22:54:06.514Z,27.33
2018-07-27T22:56:34.813Z,27.33
2018-07-27T22:59:03.124Z,27.30
2018-07-27T23:01:31.472Z,27.36
2018-07-27T23:03:59.863Z,27.21
2018-07-27T23:06:28.235Z,27.22
2018-07-27T23:08:56.549Z,27.26
2018-07-27T23:11:24.855Z,27.18
2018-07-27T23:13:53.149Z,27.10
2018-07-27T23:16:21.438Z,27.13
2018-07-27T23:18:50.010Z,27.11
2018-07-27T23:21:18.292Z,27.05
2018-07-27T23:23:46.699Z,27.10
2018-07-27T23:26:15.002Z,27.07
2018-07-27T23:28:43.313Z,27.01
2018-07-27T23:31:11.613Z,27.06
2018-07-27T23:33:39.964Z,27.02
2018-07-27T23:36:08.253Z,27.01
2018-07-27T23:38:36.544Z,26.97
2018-07-27T23:41:04.829Z,26.92
2018-07-27T23:43:33.146Z,26.93
2018-07-27T23:46:01.528Z,26.87
2018-07-27T23:48:29.835Z,26.95
2018-07-27T23:50:58.130Z,26.91
2018-07-27T23:53:26.523Z,26.86
2018-07-27T23:55:54.833Z,26.85
2018-07-27T23:58:23.254Z,26.76
